Ropesville, Texas
Current Conditions -  °F | °C
As of 8:00 PM on Monday 22 Dec 2014 (Local Time) from KLBB Reporting Station
Light Rain Light Rain  
Wind Chill: 37°   Ceiling: 3400
Heat Index: 42°   Visibility: 10mi
Dew Point: 35°   Wind: 8mph
Humidity: 76%   Direction: 70°ENE
Pressure: 29.76"   Gusts: NA
Location:  33.41°N, 102.15°W
Report Text: KLBB 230200Z 07007KT 10SM -RA SCT025 BKN034 OVC110 06/02 A2976 RMK AO2 P0000 T00560017
Loading
Personal Weather Stations






























Interactive Weather Map New forecast layout! Learn more

10-Day Weather Forecast

Advertisements
Track Severe Weather on mobile